Terminal Aerodrome Forecast
Issued by NWS

Home | Current Version | Previous Version | Text Only | Print | Product List | Glossary On
Versions: 1 2 3 4 5 6 7 8 9 10 11 12
000
FTAK31 PAFA 252325
TAFAOR
TAF
PAOR 252325Z 2600/2624 23007KT P6SM VCSH SCT050 BKN070 BKN140
     FM260600 VRB03KT P6SM BKN100 BKN200=

USA.gov is the U.S. government's official web portal to all federal, state and local government web resources and services.